createdAt,value
2018-04-11T00:00:13.227Z,44.57
2018-04-11T00:02:40.652Z,47.90
2018-04-11T00:05:08.121Z,42.40
2018-04-11T00:07:35.553Z,50.17
2018-04-11T00:10:03.960Z,41.53
2018-04-11T00:12:33.094Z,43.57
2018-04-11T00:15:00.513Z,47.70
2018-04-11T00:17:27.943Z,52.80
2018-04-11T00:19:55.369Z,49.43
2018-04-11T00:22:23.553Z,56.43
2018-04-11T00:24:51.749Z,46.53
2018-04-11T00:27:19.182Z,49.63
2018-04-11T00:29:46.606Z,46.47
2018-04-11T00:32:14.020Z,50.03
2018-04-11T00:34:41.444Z,45.80
2018-04-11T00:37:08.862Z,45.43
2018-04-11T00:39:36.284Z,45.53
2018-04-11T00:42:04.527Z,46.30
2018-04-11T00:44:33.668Z,51.50
2018-04-11T00:47:01.090Z,50.00
2018-04-11T00:49:28.517Z,47.83
2018-04-11T00:51:55.953Z,51.57
2018-04-11T00:54:23.376Z,51.43
2018-04-11T00:56:50.797Z,47.83
2018-04-11T00:59:18.271Z,52.40
2018-04-11T01:01:45.688Z,46.50
2018-04-11T01:04:13.131Z,49.53
2018-04-11T01:06:40.556Z,46.50
2018-04-11T01:09:08.747Z,47.27
2018-04-11T01:11:36.934Z,44.73
2018-04-11T01:14:05.120Z,47.43
2018-04-11T01:16:32.547Z,45.13
2018-04-11T01:18:59.986Z,50.90
2018-04-11T01:21:27.405Z,46.30
2018-04-11T01:23:55.596Z,46.70
2018-04-11T01:26:23.817Z,46.33
2018-04-11T01:28:51.287Z,47.30
2018-04-11T01:31:18.717Z,48.00
2018-04-11T01:33:46.900Z,53.80
2018-04-11T01:36:14.322Z,44.10
2018-04-11T01:38:41.729Z,51.20
2018-04-11T01:41:09.153Z,50.83
2018-04-11T01:43:36.576Z,47.97
2018-04-11T01:46:05.601Z,48.97
2018-04-11T01:48:34.704Z,49.57
2018-04-11T01:51:02.884Z,45.23
2018-04-11T01:53:31.076Z,48.67
2018-04-11T01:55:59.267Z,55.27
2018-04-11T01:58:26.740Z,51.37
2018-04-11T02:00:54.153Z,46.90
2018-04-11T02:03:21.612Z,55.50
2018-04-11T02:05:49.029Z,59.67
2018-04-11T02:08:17.224Z,48.65
2018-04-11T02:10:44.697Z,52.53
2018-04-11T02:13:12.864Z,52.67
2018-04-11T02:15:41.044Z,47.97
2018-04-11T02:18:08.461Z,49.03
2018-04-11T02:20:35.921Z,47.20
2018-04-11T02:23:03.502Z,47.53
2018-04-11T02:25:30.953Z,50.93
2018-04-11T02:27:58.358Z,43.33
2018-04-11T02:30:25.790Z,44.73
2018-04-11T02:32:53.275Z,42.85
2018-04-11T02:35:20.676Z,49.63
2018-04-11T02:37:48.087Z,47.90
2018-04-11T02:40:15.549Z,48.03
2018-04-11T02:42:43.717Z,52.13
2018-04-11T02:45:11.165Z,44.50
2018-04-11T02:47:38.614Z,50.70
2018-04-11T02:50:06.034Z,49.87
2018-04-11T02:52:34.214Z,46.80
2018-04-11T02:55:01.632Z,50.30
2018-04-11T02:57:29.066Z,39.67
2018-04-11T02:59:57.238Z,44.47
2018-04-11T03:02:24.657Z,48.20
2018-04-11T03:04:52.108Z,51.43
2018-04-11T03:07:19.533Z,50.17
2018-04-11T03:09:46.965Z,42.33
2018-04-11T03:12:14.389Z,46.90
2018-04-11T03:14:42.572Z,39.17
2018-04-11T03:17:10.770Z,38.53
2018-04-11T03:19:38.945Z,46.60
2018-04-11T03:22:07.245Z,41.33
2018-04-11T03:24:36.336Z,38.30
2018-04-11T03:27:03.756Z,41.23
2018-04-11T03:29:31.179Z,40.67
2018-04-11T03:31:58.585Z,50.13
2018-04-11T03:34:26.020Z,40.43
2018-04-11T03:36:54.224Z,39.97
2018-04-11T03:39:21.632Z,49.60
2018-04-11T03:41:49.087Z,41.40
2018-04-11T03:44:16.492Z,45.70
2018-04-11T03:46:43.915Z,49.20
2018-04-11T03:49:11.324Z,46.10
2018-04-11T03:51:38.762Z,42.07
2018-04-11T03:54:07.106Z,45.87
2018-04-11T03:56:35.325Z,52.83
2018-04-11T03:59:02.757Z,42.83
2018-04-11T04:01:30.324Z,50.80
2018-04-11T04:03:57.800Z,53.60
2018-04-11T04:06:26.002Z,45.87
2018-04-11T04:08:54.208Z,39.40
2018-04-11T04:11:21.633Z,48.63
2018-04-11T04:14:01.721Z,41.07
2018-04-11T04:16:41.759Z,44.50
2018-04-11T04:19:21.102Z,41.67
2018-04-11T04:21:49.305Z,44.13
2018-04-11T04:24:17.507Z,44.67
2018-04-11T04:26:44.959Z,40.67
2018-04-11T04:29:13.320Z,49.47
2018-04-11T04:31:40.737Z,41.53
2018-04-11T04:34:08.163Z,43.50
2018-04-11T04:36:35.620Z,39.20
2018-04-11T04:39:03.064Z,40.53
2018-04-11T04:41:30.743Z,43.77
2018-04-11T04:43:58.175Z,47.13
2018-04-11T04:46:26.377Z,47.40
2018-04-11T04:48:53.808Z,40.97
2018-04-11T04:51:21.239Z,43.87
2018-04-11T04:53:48.669Z,36.77
2018-04-11T04:56:16.104Z,44.87
2018-04-11T04:58:43.513Z,42.33
2018-04-11T05:01:10.940Z,40.90
2018-04-11T05:03:39.156Z,43.20
2018-04-11T05:06:08.281Z,43.47
2018-04-11T05:08:35.697Z,41.60
2018-04-11T05:11:03.125Z,42.00
2018-04-11T05:13:30.561Z,42.80
2018-04-11T05:15:58.748Z,39.00
2018-04-11T05:18:26.753Z,46.17
2018-04-11T05:20:54.160Z,57.37
2018-04-11T05:23:21.588Z,49.97
2018-04-11T05:25:49.017Z,41.50
2018-04-11T05:28:16.520Z,39.43
2018-04-11T05:30:43.947Z,43.95
2018-04-11T05:33:11.378Z,41.53
2018-04-11T05:35:39.672Z,48.10
2018-04-11T05:38:07.093Z,41.97
2018-04-11T05:40:35.304Z,40.17
2018-04-11T05:43:02.728Z,40.40
2018-04-11T05:45:30.948Z,42.00
2018-04-11T05:47:58.419Z,42.90
2018-04-11T05:50:26.612Z,52.37
2018-04-11T05:52:54.777Z,50.13
2018-04-11T05:55:22.974Z,47.03
2018-04-11T05:57:51.153Z,53.40
2018-04-11T06:00:19.561Z,45.42
2018-04-11T06:02:47.000Z,47.90
2018-04-11T06:05:15.210Z,42.37
2018-04-11T06:07:42.653Z,50.30
2018-04-11T06:10:10.071Z,46.17
2018-04-11T06:12:37.512Z,44.53
2018-04-11T06:15:05.720Z,51.27
2018-04-11T06:17:33.147Z,38.53
2018-04-11T06:20:00.621Z,48.40
2018-04-11T06:22:28.054Z,47.47
2018-04-11T06:24:55.466Z,56.87
2018-04-11T06:27:22.905Z,49.77
2018-04-11T06:29:50.356Z,46.47
2018-04-11T06:32:17.772Z,54.37
2018-04-11T06:34:45.222Z,51.73
2018-04-11T06:37:12.753Z,44.87
2018-04-11T06:39:40.173Z,49.60
2018-04-11T06:42:08.437Z,50.57
2018-04-11T06:44:35.819Z,51.90
2018-04-11T06:47:04.033Z,48.70
2018-04-11T06:49:31.473Z,48.53
2018-04-11T06:51:58.889Z,51.70
2018-04-11T06:54:26.392Z,51.17
2018-04-11T06:56:53.833Z,47.07
2018-04-11T06:59:21.246Z,55.73
2018-04-11T07:01:49.425Z,49.10
2018-04-11T07:04:16.948Z,53.70
2018-04-11T07:06:44.406Z,44.20
2018-04-11T07:09:12.579Z,47.60
2018-04-11T07:11:40.607Z,48.07
2018-04-11T07:14:08.086Z,50.57
2018-04-11T07:16:35.503Z,48.27
2018-04-11T07:19:03.697Z,48.30
2018-04-11T07:21:31.871Z,51.70
2018-04-11T07:23:59.320Z,56.30
2018-04-11T07:26:26.788Z,52.70
2018-04-11T07:28:54.344Z,50.30
2018-04-11T07:31:21.775Z,54.37
2018-04-11T07:33:49.306Z,52.28
2018-04-11T07:36:16.709Z,50.67
2018-04-11T07:38:44.151Z,50.27
2018-04-11T07:41:11.586Z,51.23
2018-04-11T07:43:39.035Z,47.83
2018-04-11T07:46:06.907Z,54.60
2018-04-11T07:48:35.060Z,47.90
2018-04-11T07:51:02.560Z,47.70
2018-04-11T07:53:30.097Z,59.47
2018-04-11T07:55:58.272Z,52.80
2018-04-11T07:58:26.547Z,48.93
2018-04-11T08:00:53.964Z,51.43
2018-04-11T08:03:21.426Z,50.73
2018-04-11T08:05:50.179Z,50.43
2018-04-11T08:08:17.617Z,55.97
2018-04-11T08:10:45.067Z,50.97
2018-04-11T08:13:12.513Z,51.87
2018-04-11T08:15:39.940Z,53.10
2018-04-11T08:18:07.355Z,48.30
2018-04-11T08:20:34.816Z,56.53
2018-04-11T08:23:03.013Z,51.87
2018-04-11T08:25:30.501Z,59.63
2018-04-11T08:27:57.944Z,49.20
2018-04-11T08:30:25.434Z,56.57
2018-04-11T08:32:52.866Z,54.40
2018-04-11T08:35:21.071Z,56.00
2018-04-11T08:37:49.265Z,55.80
2018-04-11T08:40:16.674Z,56.00
2018-04-11T08:42:44.116Z,53.90
2018-04-11T08:45:13.259Z,58.58
2018-04-11T08:47:40.717Z,59.90
2018-04-11T08:50:08.158Z,60.07
2018-04-11T08:52:35.653Z,58.63
2018-04-11T08:55:03.013Z,54.10
2018-04-11T08:57:30.484Z,50.33
2018-04-11T08:59:57.912Z,53.67
2018-04-11T09:02:25.883Z,56.27
2018-04-11T09:04:54.045Z,54.77
2018-04-11T09:07:22.257Z,58.73
2018-04-11T09:09:50.440Z,54.90
2018-04-11T09:12:18.670Z,50.50
2018-04-11T09:14:46.130Z,61.97
2018-04-11T09:17:14.299Z,54.67
2018-04-11T09:19:41.745Z,56.37
2018-04-11T09:22:09.945Z,55.47
2018-04-11T09:24:38.136Z,57.03
2018-04-11T09:27:06.325Z,54.70
2018-04-11T09:29:34.541Z,55.50
2018-04-11T09:32:02.000Z,55.10
2018-04-11T09:34:29.432Z,64.47
2018-04-11T09:36:56.959Z,59.53
2018-04-11T09:39:24.364Z,60.47
2018-04-11T09:41:51.871Z,56.57
2018-04-11T09:44:19.278Z,55.23
2018-04-11T09:46:46.740Z,62.37
2018-04-11T09:49:14.191Z,53.23
2018-04-11T09:51:41.625Z,55.77
2018-04-11T09:54:09.824Z,58.33
2018-04-11T09:56:37.262Z,67.50
2018-04-11T09:59:04.760Z,56.70
2018-04-11T10:01:37.883Z,54.80
2018-04-11T10:04:06.093Z,58.80
2018-04-11T10:06:33.522Z,57.53
2018-04-11T10:09:00.981Z,63.50
2018-04-11T10:11:29.196Z,65.33
2018-04-11T10:13:56.637Z,54.73
2018-04-11T10:16:24.075Z,64.93
2018-04-11T10:18:51.484Z,68.73
2018-04-11T10:21:18.914Z,60.60
2018-04-11T10:23:46.393Z,71.00
2018-04-11T10:26:15.317Z,59.63
2018-04-11T10:28:43.517Z,65.13
2018-04-11T10:31:10.952Z,65.13
2018-04-11T10:33:38.402Z,58.03
2018-04-11T10:36:05.802Z,66.17
2018-04-11T10:38:33.304Z,64.47
2018-04-11T10:41:00.800Z,84.17
2018-04-11T10:43:28.243Z,69.87
2018-04-11T10:45:55.745Z,64.47
2018-04-11T10:48:23.139Z,70.77
2018-04-11T10:50:50.596Z,72.37
2018-04-11T10:53:18.317Z,69.67
2018-04-11T10:55:46.481Z,71.57
2018-04-11T10:58:15.597Z,69.77
2018-04-11T11:00:43.032Z,64.53
2018-04-11T11:03:10.491Z,81.07
2018-04-11T11:05:37.892Z,65.67
2018-04-11T11:08:06.108Z,77.63
2018-04-11T11:10:33.533Z,62.07
2018-04-11T11:13:01.153Z,98.07
2018-04-11T11:15:28.576Z,112.43
2018-04-11T11:17:56.022Z,63.20
2018-04-11T11:20:23.432Z,73.70
2018-04-11T11:22:51.657Z,77.57
2018-04-11T11:25:19.052Z,84.23
2018-04-11T11:27:46.529Z,62.87
2018-04-11T11:30:14.713Z,66.77
2018-04-11T11:32:42.118Z,73.37
2018-04-11T11:35:09.597Z,62.60
2018-04-11T11:37:37.768Z,61.23
2018-04-11T11:40:05.960Z,68.00
2018-04-11T11:42:34.132Z,61.33
2018-04-11T11:45:01.577Z,55.63
2018-04-11T11:47:28.993Z,57.93
2018-04-11T11:49:56.414Z,60.43
2018-04-11T11:52:23.902Z,56.60
2018-04-11T11:54:51.303Z,62.83
2018-04-11T11:57:18.747Z,53.57
2018-04-11T11:59:47.446Z,59.55
2018-04-11T12:02:16.593Z,56.33
2018-04-11T12:07:11.568Z,71.27
2018-04-11T12:09:39.008Z,64.47
2018-04-11T12:12:06.429Z,69.93
2018-04-11T12:14:34.668Z,64.03
2018-04-11T12:17:02.104Z,63.40
2018-04-11T12:19:29.534Z,62.17
2018-04-11T12:21:56.948Z,68.13
2018-04-11T12:24:24.535Z,61.03
2018-04-11T12:26:51.947Z,75.97
2018-04-11T12:29:19.468Z,60.40
2018-04-11T12:31:48.156Z,63.80
2018-04-11T12:34:15.565Z,64.30
2018-04-11T12:36:42.981Z,65.13
2018-04-11T12:39:10.445Z,72.77
2018-04-11T12:41:37.937Z,69.80
2018-04-11T12:44:05.410Z,63.53
2018-04-11T12:46:32.836Z,64.37
2018-04-11T12:49:01.101Z,58.97
2018-04-11T12:51:28.544Z,60.13
2018-04-11T12:53:55.986Z,62.35
2018-04-11T12:56:23.460Z,66.90
2018-04-11T12:58:50.895Z,57.13
2018-04-11T13:01:18.411Z,52.40
2018-04-11T13:03:45.842Z,56.70
2018-04-11T13:06:14.032Z,56.60
2018-04-11T13:08:42.214Z,53.70
2018-04-11T13:11:10.406Z,56.67
2018-04-11T13:13:38.642Z,60.83
2018-04-11T13:16:06.044Z,59.23
2018-04-11T13:18:33.532Z,63.30
2018-04-11T13:21:01.010Z,67.70
2018-04-11T13:23:28.439Z,58.43
2018-04-11T13:25:55.865Z,72.77
2018-04-11T13:28:23.302Z,61.13
2018-04-11T13:30:51.500Z,63.40
2018-04-11T13:33:18.936Z,66.53
2018-04-11T13:35:46.452Z,55.70
2018-04-11T13:38:13.874Z,53.80
2018-04-11T13:40:42.800Z,66.97
2018-04-11T13:43:10.992Z,53.30
2018-04-11T13:45:39.193Z,57.40
2018-04-11T13:48:06.621Z,54.73
2018-04-11T13:50:34.057Z,56.43
2018-04-11T13:53:01.482Z,55.40
2018-04-11T13:55:29.689Z,58.93
2018-04-11T13:57:57.160Z,51.23
2018-04-11T14:00:25.362Z,51.27
2018-04-11T14:02:52.785Z,53.57
2018-04-11T14:05:21.101Z,55.90
2018-04-11T14:07:49.245Z,60.90
2018-04-11T14:10:16.683Z,70.43
2018-04-11T14:12:44.133Z,64.77
2018-04-11T14:15:11.548Z,63.80
2018-04-11T14:17:39.066Z,60.20
2018-04-11T14:20:07.267Z,56.17
2018-04-11T14:22:34.693Z,58.93
2018-04-11T14:25:02.912Z,63.63
2018-04-11T14:27:30.368Z,53.00
2018-04-11T14:29:57.789Z,59.20
2018-04-11T14:32:25.229Z,56.70
2018-04-11T14:34:52.681Z,63.10
2018-04-11T14:37:20.108Z,59.07
2018-04-11T14:39:48.313Z,61.63
2018-04-11T14:42:16.500Z,57.03
2018-04-11T14:44:43.939Z,56.80
2018-04-11T14:47:11.352Z,59.73
2018-04-11T14:49:38.804Z,64.00
2018-04-11T14:52:06.216Z,54.80
2018-04-11T14:54:33.683Z,54.13
2018-04-11T14:57:01.131Z,55.57
2018-04-11T14:59:28.557Z,56.17
2018-04-11T15:01:56.065Z,58.20
2018-04-11T15:04:23.550Z,57.43
2018-04-11T15:06:51.082Z,59.63
2018-04-11T15:09:18.457Z,58.77
2018-04-11T15:11:46.649Z,58.27
2018-04-11T15:14:14.079Z,54.90
2018-04-11T15:16:41.497Z,68.27
2018-04-11T15:19:08.932Z,55.22
2018-04-11T15:21:37.152Z,53.93
2018-04-11T15:24:04.622Z,54.83
2018-04-11T15:26:32.050Z,50.63
2018-04-11T15:29:00.263Z,54.93
2018-04-11T15:31:28.439Z,56.90
2018-04-11T15:33:55.883Z,53.10
2018-04-11T15:36:23.311Z,53.97
2018-04-11T15:38:51.787Z,49.95
2018-04-11T15:41:20.909Z,51.30
2018-04-11T15:43:48.370Z,48.80
2018-04-11T15:46:28.500Z,51.83
2018-04-11T15:48:55.913Z,51.57
2018-04-11T15:51:23.522Z,52.30
2018-04-11T15:53:51.963Z,59.13
2018-04-11T15:56:19.407Z,61.53
2018-04-11T15:58:46.812Z,56.00
2018-04-11T16:01:14.264Z,59.93
2018-04-11T16:03:42.488Z,60.40
2018-04-11T16:06:09.936Z,58.93
2018-04-11T16:08:37.356Z,60.70
2018-04-11T16:11:04.907Z,62.23
2018-04-11T16:13:32.384Z,69.60
2018-04-11T16:15:59.823Z,57.47
2018-04-11T16:18:27.291Z,70.13
2018-04-11T16:20:54.749Z,68.03
2018-04-11T16:23:22.183Z,66.00
2018-04-11T16:25:50.384Z,62.93
2018-04-11T16:28:17.824Z,67.87
2018-04-11T16:30:45.280Z,72.87
2018-04-11T16:33:12.768Z,75.13
2018-04-11T16:35:40.209Z,63.77
2018-04-11T16:38:08.605Z,73.93
2018-04-11T16:40:36.053Z,68.57
2018-04-11T16:43:03.495Z,68.00
2018-04-11T16:45:30.930Z,64.73
2018-04-11T16:47:58.344Z,70.57
2018-04-11T16:50:25.763Z,71.50
2018-04-11T16:52:53.200Z,64.77
2018-04-11T16:55:20.615Z,69.73
2018-04-11T16:57:48.049Z,66.20
2018-04-11T17:00:15.485Z,69.23
2018-04-11T17:02:42.922Z,72.30
2018-04-11T17:05:11.324Z,72.50
2018-04-11T17:07:39.514Z,78.13
2018-04-11T17:10:07.709Z,68.50
2018-04-11T17:12:35.123Z,64.00
2018-04-11T17:15:02.585Z,66.80
2018-04-11T17:17:29.992Z,66.37
2018-04-11T17:19:58.213Z,64.27
2018-04-11T17:22:37.428Z,62.20
2018-04-11T17:25:17.452Z,67.90
2018-04-11T17:27:56.828Z,62.33
2018-04-11T17:30:37.000Z,57.97
2018-04-11T17:33:05.212Z,67.03
2018-04-11T17:35:32.682Z,63.17
2018-04-11T17:38:00.869Z,78.23
2018-04-11T17:40:28.293Z,66.10
2018-04-11T17:42:55.722Z,65.67
2018-04-11T17:45:23.148Z,70.53
2018-04-11T17:47:51.418Z,84.00
2018-04-11T17:50:18.827Z,71.80
2018-04-11T17:52:46.285Z,73.67
2018-04-11T17:55:13.708Z,69.47
2018-04-11T17:57:41.145Z,67.63
2018-04-11T18:00:08.572Z,59.03
2018-04-11T18:02:36.778Z,77.00
2018-04-11T18:05:04.228Z,71.73
2018-04-11T18:07:31.641Z,67.70
2018-04-11T18:09:59.091Z,76.27
2018-04-11T18:12:27.253Z,65.20
2018-04-11T18:14:55.566Z,64.83
2018-04-11T18:17:24.051Z,69.47
2018-04-11T18:19:53.164Z,61.53
2018-04-11T18:22:20.577Z,57.90
2018-04-11T18:24:48.053Z,61.27
2018-04-11T18:27:15.470Z,62.90
2018-04-11T18:29:42.901Z,64.13
2018-04-11T18:32:10.352Z,61.30
2018-04-11T18:34:37.758Z,59.63
2018-04-11T18:37:05.935Z,55.73
2018-04-11T18:39:34.166Z,60.70
2018-04-11T18:42:02.404Z,63.90
2018-04-11T18:44:29.821Z,59.95
2018-04-11T18:46:57.264Z,63.50
2018-04-11T18:49:25.501Z,59.63
2018-04-11T18:51:54.240Z,57.58
2018-04-11T18:54:21.737Z,57.07
2018-04-11T18:56:49.180Z,63.90
2018-04-11T18:59:16.609Z,63.07
2018-04-11T19:01:44.078Z,56.70
2018-04-11T19:04:11.500Z,67.17
2018-04-11T19:06:38.925Z,65.53
2018-04-11T19:09:06.353Z,59.33
2018-04-11T19:11:33.770Z,61.80
2018-04-11T19:14:01.194Z,61.67
2018-04-11T19:16:28.618Z,64.23
2018-04-11T19:18:56.800Z,71.00
2018-04-11T19:21:24.216Z,57.70
2018-04-11T19:23:51.664Z,60.97
2018-04-11T19:26:19.078Z,59.77
2018-04-11T19:28:46.515Z,54.80
2018-04-11T19:31:13.981Z,58.13
2018-04-11T19:33:41.437Z,61.23
2018-04-11T19:36:09.609Z,59.63
2018-04-11T19:38:37.877Z,59.65
2018-04-11T19:41:05.336Z,57.20
2018-04-11T19:43:32.781Z,59.03
2018-04-11T19:46:00.209Z,60.47
2018-04-11T19:48:27.629Z,61.93
2018-04-11T19:50:55.121Z,69.27
2018-04-11T19:53:22.527Z,56.57
2018-04-11T19:55:50.037Z,60.43
2018-04-11T19:58:18.186Z,64.77
2018-04-11T20:00:45.601Z,63.47
2018-04-11T20:03:13.049Z,64.80
2018-04-11T20:05:40.533Z,63.77
2018-04-11T20:08:07.912Z,64.00
2018-04-11T20:10:35.424Z,62.65
2018-04-11T20:13:03.609Z,61.07
2018-04-11T20:15:31.021Z,63.73
2018-04-11T20:17:58.467Z,57.03
2018-04-11T20:20:25.877Z,56.37
2018-04-11T20:22:54.221Z,61.50
2018-04-11T20:25:21.673Z,60.33
2018-04-11T20:27:49.153Z,69.03
2018-04-11T20:30:16.561Z,59.80
2018-04-11T20:32:44.040Z,58.10
2018-04-11T20:35:11.569Z,59.10
2018-04-11T20:37:39.001Z,62.73
2018-04-11T20:40:06.424Z,50.67
2018-04-11T20:42:33.877Z,65.77
2018-04-11T20:45:02.330Z,70.30
2018-04-11T20:47:29.805Z,64.47
2018-04-11T20:49:57.676Z,74.40
2018-04-11T20:52:25.864Z,66.07
2018-04-11T20:54:54.276Z,76.80
2018-04-11T20:57:21.704Z,77.73
2018-04-11T20:59:49.889Z,59.33
2018-04-11T21:02:18.141Z,77.87
2018-04-11T21:04:45.546Z,83.80
2018-04-11T21:07:12.985Z,86.70
2018-04-11T21:09:40.395Z,85.50
2018-04-11T21:12:08.616Z,80.13
2018-04-11T21:14:36.365Z,78.80
2018-04-11T21:17:04.586Z,78.57
2018-04-11T21:19:32.054Z,82.87
2018-04-11T21:22:00.210Z,78.43
2018-04-11T21:24:27.630Z,87.13
2018-04-11T21:26:55.091Z,87.93
2018-04-11T21:29:22.683Z,97.30
2018-04-11T21:31:50.141Z,90.60
2018-04-11T21:34:17.561Z,92.27
2018-04-11T21:36:45.000Z,90.90
2018-04-11T21:39:12.428Z,93.22
2018-04-11T21:41:39.874Z,88.43
2018-04-11T21:44:07.292Z,92.67
2018-04-11T21:46:34.716Z,92.80
2018-04-11T21:49:02.139Z,94.63
2018-04-11T21:51:29.566Z,95.73
2018-04-11T21:53:56.976Z,89.43
2018-04-11T21:56:24.817Z,87.40
2018-04-11T21:58:52.240Z,93.57
2018-04-11T22:01:20.451Z,90.90
2018-04-11T22:03:47.873Z,95.77
2018-04-11T22:06:16.050Z,90.93
2018-04-11T22:08:43.480Z,108.00
2018-04-11T22:11:10.944Z,95.37
2018-04-11T22:13:38.344Z,99.17
2018-04-11T22:16:05.769Z,102.37
2018-04-11T22:18:33.200Z,94.47
2018-04-11T22:21:00.743Z,96.60
2018-04-11T22:23:28.175Z,102.23
2018-04-11T22:25:55.618Z,105.60
2018-04-11T22:28:23.041Z,103.90
2018-04-11T22:30:50.460Z,104.43
2018-04-11T22:33:18.645Z,109.95
2018-04-11T22:35:46.960Z,103.67
2018-04-11T22:38:15.122Z,108.50
2018-04-11T22:40:43.310Z,107.43
2018-04-11T22:43:11.499Z,97.20
2018-04-11T22:45:39.709Z,95.37
2018-04-11T22:48:07.123Z,104.63
2018-04-11T22:50:34.558Z,94.43
2018-04-11T22:53:01.989Z,102.67
2018-04-11T22:55:29.420Z,99.57
2018-04-11T22:57:56.853Z,102.10
2018-04-11T23:00:25.964Z,111.40
2018-04-11T23:02:53.376Z,107.57
2018-04-11T23:05:20.808Z,103.13
2018-04-11T23:07:48.240Z,95.67
2018-04-11T23:10:15.697Z,109.20
2018-04-11T23:12:43.900Z,99.17
2018-04-11T23:15:12.088Z,109.80
2018-04-11T23:17:39.589Z,91.53
2018-04-11T23:20:07.015Z,114.23
2018-04-11T23:22:35.203Z,95.83
2018-04-11T23:25:03.380Z,103.10
2018-04-11T23:27:31.572Z,95.00
2018-04-11T23:29:59.785Z,93.87
2018-04-11T23:32:27.228Z,92.20
2018-04-11T23:34:56.248Z,99.55
2018-04-11T23:37:23.686Z,101.07
2018-04-11T23:39:51.120Z,98.47
2018-04-11T23:42:18.549Z,100.23
2018-04-11T23:44:46.724Z,97.20
2018-04-11T23:47:14.943Z,101.03
2018-04-11T23:49:42.385Z,106.50
2018-04-11T23:52:09.832Z,104.13
2018-04-11T23:54:37.317Z,104.68
2018-04-11T23:57:05.497Z,103.60
2018-04-11T23:59:33.699Z,96.23
